UASK 272100Z 13001MPS 9999 SCT050 OVC100 10/02 Q1010 NOSIG RMK QFE732/0977
QNH:(hPa/inHg/mmHg)1010 / 29.83 / 758
QFE:(hPa/inHg/mmHg)975 / 28.80 / 731
Temperature10
Dew Point2
Visibility> 10000
Weather
Cloud CoverSCT (5000);
OVC (10000);
Transition Altitude10000 ft.
Transition LevelFL120
SQUAWK